Time;durP1;ratioP1;P1;durP2;ratioP2;P2;SDS_P1;SDS_P2;PMS_P1;PMS_P2;Temp;Humidity;BMP_temperature;BMP_pressure;BME280_temperature;BME280_humidity;BME280_pressure;Samples;Min_cycle;Max_cycle;Signal;HPM_P1;HPM_P2
2022/12/23 00:00:46;;;;;;;;;;;10.10;99.90;;;;;;2617945;54;19942;-64
2022/12/23 00:03:16;;;;;;;;;;;10.00;99.90;;;;;;2616846;54;19967;-66
2022/12/23 00:05:45;;;;;;;;;;;10.00;99.90;;;;;;2616960;54;19942;-64
2022/12/23 00:08:15;;;;;;;;;;;10.10;99.90;;;;;;2616572;47;19969;-63
2022/12/23 00:10:44;;;;;;;;;;;10.10;99.90;;;;;;2616314;54;20492;-65
2022/12/23 00:16:03;;;;;;;;;;;10.10;99.90;;;;;;2615557;47;19974;-65
2022/12/23 00:18:32;;;;;;;;;;;10.10;99.90;;;;;;2616192;54;19966;-65
2022/12/23 00:21:02;;;;;;;;;;;10.10;99.90;;;;;;2615189;47;19967;-66
2022/12/23 00:23:38;;;;;;;;;;;10.10;99.90;;;;;;2616992;54;20078;-65
2022/12/23 00:26:08;;;;;;;;;;;10.10;99.90;;;;;;2616420;54;19950;-64
2022/12/23 00:28:40;;;;;;;;;;;10.10;99.90;;;;;;2617167;54;19994;-65
2022/12/23 00:31:10;;;;;;;;;;;10.10;99.90;;;;;;2616821;54;19953;-66
2022/12/23 00:33:40;;;;;;;;;;;10.10;99.90;;;;;;2616706;54;19951;-66
2022/12/23 00:36:13;;;;;;;;;;;10.10;99.90;;;;;;2616440;54;19958;-66
2022/12/23 00:44:09;;;;;;;;;;;10.10;99.90;;;;;;2616720;54;20416;-65
2022/12/23 00:46:39;;;;;;;;;;;10.10;99.90;;;;;;2616327;54;19950;-66
2022/12/23 00:51:50;;;;;;;;;;;10.10;99.90;;;;;;2616282;54;19955;-66
2022/12/23 00:54:20;;;;;;;;;;;10.10;99.90;;;;;;2616101;54;19977;-65
2022/12/23 00:56:49;;;;;;;;;;;10.10;99.90;;;;;;2616112;54;19943;-65
2022/12/23 00:59:22;;;;;;;;;;;10.10;99.90;;;;;;2615618;54;19946;-65
2022/12/23 01:07:16;;;;;;;;;;;10.10;99.90;;;;;;2616554;54;19947;-65
2022/12/23 01:09:46;;;;;;;;;;;10.10;99.90;;;;;;2616956;54;19978;-65
2022/12/23 01:12:15;;;;;;;;;;;10.10;99.90;;;;;;2617954;54;20014;-64
2022/12/23 01:14:47;;;;;;;;;;;10.10;99.90;;;;;;2617699;46;19962;-64
2022/12/23 01:17:17;;;;;;;;;;;10.10;99.90;;;;;;2617660;47;20450;-65
2022/12/23 01:19:46;;;;;;;;;;;10.10;99.90;;;;;;2618015;54;20029;-65
2022/12/23 01:22:16;;;;;;;;;;;10.10;99.90;;;;;;2617122;54;19954;-65
2022/12/23 01:24:45;;;;;;;;;;;10.00;99.90;;;;;;2617094;47;19947;-64
2022/12/23 01:27:15;;;;;;;;;;;10.00;99.90;;;;;;2618601;54;19946;-64
2022/12/23 01:29:44;;;;;;;;;;;10.00;99.90;;;;;;2622732;54;19969;-65
2022/12/23 01:32:16;;;;;;;;;;;10.00;99.90;;;;;;2619358;54;19935;-65
2022/12/23 01:34:46;;;;;;;;;;;10.00;99.90;;;;;;2618103;39;20331;-65
2022/12/23 01:37:15;;;;;;;;;;;10.00;99.90;;;;;;2617118;54;19947;-64
2022/12/23 01:39:45;;;;;;;;;;;10.10;99.90;;;;;;2621517;54;19965;-65
2022/12/23 01:45:00;;;;;;;;;;;10.00;99.90;;;;;;2619113;54;20515;-64
2022/12/23 01:47:37;;;;;;;;;;;10.10;99.90;;;;;;2617880;54;19942;-64
2022/12/23 01:50:12;;;;;;;;;;;10.10;99.90;;;;;;2618175;54;19957;-64
2022/12/23 01:52:44;;;;;;;;;;;10.10;99.90;;;;;;2616729;47;19961;-65
2022/12/23 01:55:15;;;;;;;;;;;10.10;99.90;;;;;;2616853;54;19935;-66
2022/12/23 01:57:45;;;;;;;;;;;10.10;99.90;;;;;;2616362;54;19958;-64
2022/12/23 02:05:43;;;;;;;;;;;10.10;99.90;;;;;;2617316;39;20539;-64
2022/12/23 02:11:08;;;;;;;;;;;10.00;99.90;;;;;;2615638;54;19966;-65
2022/12/23 02:16:15;;;;;;;;;;;10.10;99.90;;;;;;2615615;54;19973;-65
2022/12/23 02:16:31;;;;;;;;;;;10.10;99.90;;;;;;2616724;54;19968;-65
2022/12/23 02:19:09;;;;;;;;;;;10.10;99.90;;;;;;2615958;54;20002;-66
2022/12/23 02:21:48;;;;;;;;;;;10.00;99.90;;;;;;2615753;54;19939;-65
2022/12/23 02:24:37;;;;;;;;;;;10.10;99.90;;;;;;2617120;54;19946;-65
2022/12/23 02:27:18;;;;;;;;;;;10.10;99.90;;;;;;2620800;47;19953;-65
2022/12/23 02:30:05;;;;;;;;;;;10.10;99.90;;;;;;2618466;54;19975;-65
2022/12/23 02:32:44;;;;;;;;;;;10.10;99.90;;;;;;2616035;54;19950;-65
2022/12/23 02:35:15;;;;;;;;;;;10.10;99.90;;;;;;2615365;54;19946;-64
2022/12/23 02:37:47;;;;;;;;;;;10.10;99.90;;;;;;2615890;54;20075;-64
2022/12/23 02:40:24;;;;;;;;;;;10.10;99.90;;;;;;2615658;54;19957;-64
2022/12/23 02:42:59;;;;;;;;;;;10.10;99.90;;;;;;2616216;54;19958;-64
2022/12/23 02:45:34;;;;;;;;;;;10.10;99.90;;;;;;2615531;47;19981;-64
2022/12/23 02:48:07;;;;;;;;;;;10.10;99.90;;;;;;2616224;54;19977;-65
2022/12/23 02:50:38;;;;;;;;;;;10.10;99.90;;;;;;2615973;54;20471;-64
2022/12/23 02:53:10;;;;;;;;;;;10.10;99.90;;;;;;2615308;54;19950;-64
2022/12/23 02:55:41;;;;;;;;;;;10.10;99.90;;;;;;2617671;54;19950;-64
2022/12/23 02:58:13;;;;;;;;;;;10.10;99.90;;;;;;2616435;54;19997;-64
2022/12/23 03:00:43;;;;;;;;;;;10.10;99.90;;;;;;2615922;47;20074;-65
2022/12/23 03:03:16;;;;;;;;;;;10.10;99.90;;;;;;2616732;47;20535;-64
2022/12/23 03:05:46;;;;;;;;;;;10.10;99.90;;;;;;2617262;54;19934;-65
2022/12/23 03:08:17;;;;;;;;;;;10.10;99.90;;;;;;2615388;54;19969;-65
2022/12/23 03:10:57;;;;;;;;;;;10.10;99.90;;;;;;2615972;54;19957;-65
2022/12/23 03:13:30;;;;;;;;;;;10.10;99.90;;;;;;2616628;54;19943;-65
2022/12/23 03:16:04;;;;;;;;;;;10.00;99.90;;;;;;2616027;54;19954;-65
2022/12/23 03:18:41;;;;;;;;;;;10.00;99.90;;;;;;2616910;54;19946;-64
2022/12/23 03:21:13;;;;;;;;;;;10.00;99.90;;;;;;2615762;54;19962;-64
2022/12/23 03:23:44;;;;;;;;;;;9.90;99.90;;;;;;2616218;54;20002;-65
2022/12/23 03:26:24;;;;;;;;;;;9.80;99.90;;;;;;2619469;31;20455;-65
2022/12/23 03:28:55;;;;;;;;;;;9.80;99.90;;;;;;2621508;47;19954;-64
2022/12/23 03:31:26;;;;;;;;;;;9.80;99.90;;;;;;2621915;47;20510;-64
2022/12/23 03:34:00;;;;;;;;;;;9.80;99.90;;;;;;2622504;54;19962;-63
2022/12/23 03:36:30;;;;;;;;;;;9.80;99.90;;;;;;2618466;54;20467;-64
2022/12/23 03:39:00;;;;;;;;;;;9.80;99.90;;;;;;2615778;47;19958;-65
2022/12/23 03:41:32;;;;;;;;;;;9.80;99.90;;;;;;2617366;31;20448;-65
2022/12/23 03:44:04;;;;;;;;;;;9.70;99.90;;;;;;2617153;39;20683;-64
2022/12/23 03:46:39;;;;;;;;;;;9.70;99.90;;;;;;2616950;31;20403;-65
2022/12/23 03:49:15;;;;;;;;;;;9.70;99.90;;;;;;2618229;39;20336;-65
2022/12/23 03:51:47;;;;;;;;;;;9.70;99.90;;;;;;2616552;31;20407;-65
2022/12/23 03:54:19;;;;;;;;;;;9.10;99.90;;;;;;2615441;54;20717;-65
2022/12/23 03:56:52;;;;;;;;;;;9.60;99.90;;;;;;2616854;39;20371;-66
2022/12/23 03:59:25;;;;;;;;;;;9.50;99.90;;;;;;2616564;31;20433;-66
2022/12/23 04:01:58;;;;;;;;;;;9.50;99.90;;;;;;2616015;54;20431;-66
2022/12/23 04:04:31;;;;;;;;;;;9.50;99.90;;;;;;2616362;47;19953;-66
2022/12/23 04:07:06;;;;;;;;;;;9.40;99.90;;;;;;2615630;54;19947;-66
2022/12/23 04:09:36;;;;;;;;;;;9.40;99.90;;;;;;2615710;54;20077;-66
2022/12/23 04:12:06;;;;;;;;;;;9.30;99.90;;;;;;2614828;54;20497;-65
2022/12/23 04:14:36;;;;;;;;;;;9.20;99.90;;;;;;2616559;54;19947;-65
2022/12/23 04:17:06;;;;;;;;;;;9.20;99.90;;;;;;2616592;47;19973;-65
2022/12/23 04:19:38;;;;;;;;;;;9.10;99.90;;;;;;2615554;47;20033;-65
2022/12/23 04:22:07;;;;;;;;;;;9.10;99.90;;;;;;2615481;54;19957;-65
2022/12/23 04:24:37;;;;;;;;;;;9.00;99.90;;;;;;2616255;47;20038;-65
2022/12/23 04:27:06;;;;;;;;;;;9.00;99.90;;;;;;2616287;54;19946;-65
2022/12/23 04:29:36;;;;;;;;;;;9.00;99.90;;;;;;2616701;54;19993;-64
2022/12/23 04:32:05;;;;;;;;;;;9.00;99.90;;;;;;2614762;54;20077;-65
2022/12/23 04:34:37;;;;;;;;;;;9.00;99.90;;;;;;2616494;51;19954;-64
2022/12/23 04:37:07;;;;;;;;;;;8.90;99.90;;;;;;2615469;47;19938;-66
2022/12/23 04:39:37;;;;;;;;;;;8.90;99.90;;;;;;2619305;39;20375;-64
2022/12/23 04:42:06;;;;;;;;;;;8.90;99.90;;;;;;2617263;54;20447;-65
2022/12/23 04:44:36;;;;;;;;;;;8.90;99.90;;;;;;2617232;39;20374;-65
2022/12/23 04:47:05;;;;;;;;;;;8.90;99.90;;;;;;2616641;54;19966;-65
2022/12/23 04:49:37;;;;;;;;;;;8.90;99.90;;;;;;2618823;54;19943;-66
2022/12/23 04:52:07;;;;;;;;;;;8.80;99.90;;;;;;2618294;54;19946;-66
2022/12/23 04:54:36;;;;;;;;;;;8.90;99.90;;;;;;2621984;54;19946;-65
2022/12/23 04:57:14;;;;;;;;;;;8.80;99.90;;;;;;2621455;39;20366;-64
2022/12/23 04:59:43;;;;;;;;;;;8.80;99.90;;;;;;2617788;46;20013;-65
2022/12/23 05:02:13;;;;;;;;;;;8.80;99.90;;;;;;2617118;54;19950;-64
2022/12/23 05:04:45;;;;;;;;;;;8.80;99.90;;;;;;2617221;54;19946;-65
2022/12/23 05:07:15;;;;;;;;;;;8.80;99.90;;;;;;2615899;54;20073;-65
2022/12/23 05:09:44;;;;;;;;;;;8.80;99.90;;;;;;2616950;54;19945;-64
2022/12/23 05:12:13;;;;;;;;;;;8.80;99.90;;;;;;2617107;54;19946;-64
2022/12/23 05:14:43;;;;;;;;;;;8.80;99.90;;;;;;2615842;47;20018;-64
2022/12/23 05:17:12;;;;;;;;;;;8.80;99.90;;;;;;2617437;54;19965;-65
2022/12/23 05:19:44;;;;;;;;;;;8.80;99.90;;;;;;2619290;54;20447;-64
2022/12/23 05:22:14;;;;;;;;;;;8.80;99.90;;;;;;2622409;54;19947;-64
2022/12/23 05:24:43;;;;;;;;;;;8.80;99.90;;;;;;2621055;54;19947;-64
2022/12/23 05:27:13;;;;;;;;;;;8.80;99.90;;;;;;2617752;47;20595;-64
2022/12/23 05:29:42;;;;;;;;;;;8.90;99.90;;;;;;2617114;47;19993;-65
2022/12/23 05:32:12;;;;;;;;;;;8.90;99.90;;;;;;2616609;39;20402;-65
2022/12/23 05:34:41;;;;;;;;;;;8.90;99.90;;;;;;2617191;54;19950;-64
2022/12/23 05:37:13;;;;;;;;;;;8.90;99.90;;;;;;2616320;47;19983;-66
2022/12/23 05:39:43;;;;;;;;;;;8.90;99.90;;;;;;2617366;54;19950;-66
2022/12/23 05:42:18;;;;;;;;;;;8.90;99.90;;;;;;2616613;54;20443;-65
2022/12/23 05:44:47;;;;;;;;;;;8.90;99.90;;;;;;2616417;47;19973;-65
2022/12/23 05:47:17;;;;;;;;;;;8.90;99.90;;;;;;2616258;54;20439;-65
2022/12/23 05:49:46;;;;;;;;;;;8.90;99.90;;;;;;2616789;54;19950;-65
2022/12/23 05:52:18;;;;;;;;;;;8.90;99.90;;;;;;2616672;39;20042;-65
2022/12/23 05:54:48;;;;;;;;;;;8.90;99.90;;;;;;2618661;54;19978;-66
2022/12/23 05:57:17;;;;;;;;;;;8.90;99.90;;;;;;2619750;54;20015;-65
2022/12/23 05:59:47;;;;;;;;;;;8.90;99.90;;;;;;2617226;47;19979;-65
2022/12/23 06:02:16;;;;;;;;;;;8.90;99.90;;;;;;2615660;54;19950;-65
2022/12/23 06:04:46;;;;;;;;;;;8.80;99.90;;;;;;2616498;54;19946;-65
2022/12/23 06:07:18;;;;;;;;;;;8.80;99.90;;;;;;2616195;54;19942;-65
2022/12/23 06:09:48;;;;;;;;;;;8.80;99.90;;;;;;2616727;54;19951;-65
2022/12/23 06:12:17;;;;;;;;;;;8.80;99.90;;;;;;2616512;54;19998;-65
2022/12/23 06:14:47;;;;;;;;;;;8.90;99.90;;;;;;2618964;54;19997;-65
2022/12/23 06:17:16;;;;;;;;;;;8.90;99.90;;;;;;2617856;54;19989;-65
2022/12/23 06:19:46;;;;;;;;;;;8.90;99.90;;;;;;2614563;54;19967;-65
2022/12/23 06:22:16;;;;;;;;;;;8.90;99.90;;;;;;2616056;54;19957;-65
2022/12/23 06:24:49;;;;;;;;;;;8.90;99.90;;;;;;2616223;54;20431;-65
2022/12/23 06:27:18;;;;;;;;;;;9.00;99.90;;;;;;2615864;47;19950;-65
2022/12/23 06:29:48;;;;;;;;;;;9.00;99.90;;;;;;2616292;54;20483;-65
2022/12/23 06:32:17;;;;;;;;;;;9.00;99.90;;;;;;2616753;54;20033;-66
2022/12/23 06:34:48;;;;;;;;;;;9.00;99.90;;;;;;2616106;54;20029;-65
2022/12/23 06:37:17;;;;;;;;;;;9.00;99.90;;;;;;2615705;54;19985;-65
2022/12/23 06:39:49;;;;;;;;;;;9.00;99.90;;;;;;2616869;31;20389;-65
2022/12/23 06:42:19;;;;;;;;;;;9.00;99.90;;;;;;2613768;47;20067;-65
2022/12/23 06:44:48;;;;;;;;;;;9.00;99.90;;;;;;2614093;54;19954;-66
2022/12/23 06:47:18;;;;;;;;;;;9.00;99.90;;;;;;2616515;54;19977;-65
2022/12/23 06:49:47;;;;;;;;;;;9.00;99.90;;;;;;2614415;54;20002;-65
2022/12/23 06:52:17;;;;;;;;;;;9.00;99.90;;;;;;2612204;54;19981;-66
2022/12/23 06:54:49;;;;;;;;;;;9.20;99.90;;;;;;2613837;54;20506;-66
2022/12/23 06:57:19;;;;;;;;;;;9.00;99.90;;;;;;2609420;54;20017;-65
2022/12/23 06:59:49;;;;;;;;;;;9.00;99.90;;;;;;2614009;54;19951;-64
2022/12/23 07:02:18;;;;;;;;;;;8.90;99.90;;;;;;2611775;54;20435;-65
2022/12/23 07:04:48;;;;;;;;;;;8.90;99.90;;;;;;2612685;54;20472;-65
2022/12/23 07:07:17;;;;;;;;;;;8.90;99.90;;;;;;2615751;54;19950;-65
2022/12/23 07:09:49;;;;;;;;;;;8.90;99.90;;;;;;2621053;54;20689;-64
2022/12/23 07:12:19;;;;;;;;;;;8.80;99.90;;;;;;2618477;54;19954;-65
2022/12/23 07:14:48;;;;;;;;;;;8.80;99.90;;;;;;2616576;54;19950;-65
2022/12/23 07:17:18;;;;;;;;;;;8.80;99.90;;;;;;2616680;47;19954;-65
2022/12/23 07:19:48;;;;;;;;;;;8.80;99.90;;;;;;2614701;47;20004;-65
2022/12/23 07:22:17;;;;;;;;;;;8.80;99.90;;;;;;2620623;47;20446;-65
2022/12/23 07:24:49;;;;;;;;;;;8.80;99.90;;;;;;2619193;39;20411;-66
2022/12/23 07:27:19;;;;;;;;;;;8.80;99.90;;;;;;2617591;54;19954;-65
2022/12/23 07:29:48;;;;;;;;;;;8.80;99.90;;;;;;2616442;47;19954;-66
2022/12/23 07:32:18;;;;;;;;;;;8.80;99.90;;;;;;2616368;39;20690;-65
2022/12/23 07:34:47;;;;;;;;;;;9.20;99.90;;;;;;2613654;54;19951;-65
2022/12/23 07:37:16;;;;;;;;;;;8.80;99.90;;;;;;2616311;54;20558;-65
2022/12/23 07:39:46;;;;;;;;;;;8.80;99.90;;;;;;2615317;47;19950;-65
2022/12/23 07:42:18;;;;;;;;;;;8.90;99.90;;;;;;2616078;54;19942;-65
2022/12/23 07:45:08;;;;;;;;;;;8.90;99.90;;;;;;2614595;47;19950;-66
2022/12/23 07:47:38;;;;;;;;;;;8.90;99.90;;;;;;2616474;54;19981;-65
2022/12/23 07:50:08;;;;;;;;;;;8.90;99.90;;;;;;2614593;54;19946;-64
2022/12/23 07:52:38;;;;;;;;;;;8.90;99.90;;;;;;2614123;47;19951;-64
2022/12/23 07:55:08;;;;;;;;;;;8.90;99.90;;;;;;2614834;47;19954;-67
2022/12/23 07:57:40;;;;;;;;;;;8.90;99.90;;;;;;2615447;47;19953;-66
2022/12/23 08:00:10;;;;;;;;;;;8.90;99.90;;;;;;2614967;54;20046;-65
2022/12/23 08:02:40;;;;;;;;;;;8.90;99.90;;;;;;2612562;54;19977;-66
2022/12/23 08:05:10;;;;;;;;;;;8.90;99.90;;;;;;2613877;54;19950;-65
2022/12/23 08:07:40;;;;;;;;;;;8.90;99.90;;;;;;2613719;54;19983;-65
2022/12/23 08:10:10;;;;;;;;;;;8.90;99.90;;;;;;2613415;54;19945;-65
2022/12/23 08:12:42;;;;;;;;;;;8.90;99.90;;;;;;2614623;47;20000;-65
2022/12/23 08:15:12;;;;;;;;;;;8.90;99.90;;;;;;2612792;39;20485;-63
2022/12/23 08:17:41;;;;;;;;;;;8.90;99.90;;;;;;2615252;48;19947;-63
2022/12/23 08:20:11;;;;;;;;;;;8.90;99.90;;;;;;2617045;54;19989;-63
2022/12/23 08:22:41;;;;;;;;;;;9.00;99.90;;;;;;2615250;54;20435;-64
2022/12/23 08:25:11;;;;;;;;;;;9.00;99.90;;;;;;2611807;51;20002;-65
2022/12/23 08:27:43;;;;;;;;;;;9.00;99.90;;;;;;2611556;54;19978;-64
2022/12/23 08:30:13;;;;;;;;;;;9.00;99.90;;;;;;2611951;47;19990;-66
2022/12/23 08:32:42;;;;;;;;;;;9.00;99.90;;;;;;2611603;54;19989;-64
2022/12/23 08:35:12;;;;;;;;;;;9.00;99.90;;;;;;2611340;54;19953;-66
2022/12/23 08:37:41;;;;;;;;;;;9.00;99.90;;;;;;2610826;47;19978;-66
2022/12/23 08:40:11;;;;;;;;;;;9.00;99.90;;;;;;2613585;54;19983;-65
2022/12/23 08:42:43;;;;;;;;;;;9.10;99.90;;;;;;2610669;54;19958;-65
2022/12/23 08:45:14;;;;;;;;;;;9.10;99.90;;;;;;2614073;54;19954;-65
2022/12/23 08:47:44;;;;;;;;;;;9.10;99.90;;;;;;2613669;54;19959;-65
2022/12/23 08:50:14;;;;;;;;;;;9.10;99.90;;;;;;2614617;54;19981;-65
2022/12/23 08:52:43;;;;;;;;;;;9.10;99.90;;;;;;2616126;54;19982;-66
2022/12/23 08:55:12;;;;;;;;;;;9.20;99.90;;;;;;2620956;54;19989;-68
2022/12/23 08:57:44;;;;;;;;;;;9.20;99.90;;;;;;2621789;54;19939;-67
2022/12/23 09:00:15;;;;;;;;;;;9.20;99.90;;;;;;2619706;47;19954;-67
2022/12/23 09:02:44;;;;;;;;;;;9.20;99.90;;;;;;2616207;54;19939;-66
2022/12/23 09:05:14;;;;;;;;;;;9.30;99.90;;;;;;2615356;54;19939;-67
2022/12/23 09:07:43;;;;;;;;;;;9.30;99.90;;;;;;2614887;54;20066;-65
2022/12/23 09:10:13;;;;;;;;;;;9.30;99.90;;;;;;2611040;54;19985;-65
2022/12/23 09:12:45;;;;;;;;;;;9.30;99.90;;;;;;2613825;54;19973;-65
2022/12/23 09:15:15;;;;;;;;;;;9.30;99.90;;;;;;2612686;54;20454;-66
2022/12/23 09:17:44;;;;;;;;;;;9.30;99.90;;;;;;2612476;54;19958;-65
2022/12/23 09:20:14;;;;;;;;;;;9.30;99.90;;;;;;2612133;54;19946;-65
2022/12/23 09:22:43;;;;;;;;;;;9.30;99.90;;;;;;2615115;54;20008;-64
2022/12/23 09:25:14;;;;;;;;;;;9.40;99.90;;;;;;2614075;54;19938;-65
2022/12/23 09:27:46;;;;;;;;;;;9.40;99.90;;;;;;2614797;47;19946;-65
2022/12/23 09:30:16;;;;;;;;;;;9.40;99.90;;;;;;2614958;54;19981;-64
2022/12/23 09:32:45;;;;;;;;;;;9.40;99.90;;;;;;2615071;54;19998;-65
2022/12/23 09:35:15;;;;;;;;;;;9.40;99.90;;;;;;2613558;54;19954;-67
2022/12/23 09:37:44;;;;;;;;;;;9.50;99.90;;;;;;2614201;54;19943;-67
2022/12/23 09:40:14;;;;;;;;;;;9.50;99.90;;;;;;2614103;54;19943;-67
2022/12/23 09:42:56;;;;;;;;;;;9.60;99.90;;;;;;2613536;54;19946;-66
2022/12/23 09:45:34;;;;;;;;;;;9.60;99.90;;;;;;2612890;54;19957;-65
2022/12/23 09:48:11;;;;;;;;;;;9.60;99.90;;;;;;2612585;47;19954;-64
2022/12/23 09:50:41;;;;;;;;;;;9.60;99.90;;;;;;2616611;54;19973;-66
2022/12/23 09:53:14;;;;;;;;;;;9.70;99.90;;;;;;2615780;39;20181;-65
2022/12/23 09:55:48;;;;;;;;;;;9.70;99.90;;;;;;2613837;39;20593;-66
2022/12/23 09:58:25;;;;;;;;;;;9.70;99.90;;;;;;2614926;39;20396;-66
2022/12/23 10:01:01;;;;;;;;;;;9.70;99.90;;;;;;2614805;31;20466;-66
2022/12/23 10:03:36;;;;;;;;;;;9.70;99.90;;;;;;2613338;46;19973;-68
2022/12/23 10:06:10;;;;;;;;;;;9.70;99.90;;;;;;2614318;39;20627;-68
2022/12/23 10:08:40;;;;;;;;;;;9.70;99.90;;;;;;2614068;54;20506;-68
2022/12/23 10:11:14;;;;;;;;;;;9.70;99.90;;;;;;2613514;47;19985;-67
2022/12/23 10:13:48;;;;;;;;;;;9.90;99.90;;;;;;2612783;54;19962;-66
2022/12/23 10:16:19;;;;;;;;;;;9.80;99.90;;;;;;2613580;54;19950;-68
2022/12/23 10:18:52;;;;;;;;;;;9.70;99.90;;;;;;2615014;39;20109;-68
2022/12/23 10:21:26;;;;;;;;;;;9.80;99.90;;;;;;2613941;47;19953;-68
2022/12/23 10:23:56;;;;;;;;;;;9.80;99.90;;;;;;2613552;54;19954;-69
2022/12/23 10:26:27;;;;;;;;;;;9.80;99.90;;;;;;2613304;47;19957;-68
2022/12/23 10:29:01;;;;;;;;;;;9.80;99.90;;;;;;2613934;54;20030;-68
2022/12/23 10:31:37;;;;;;;;;;;9.80;99.90;;;;;;2614168;54;19989;-67
2022/12/23 10:34:14;;;;;;;;;;;9.80;99.90;;;;;;2613283;39;20382;-65
2022/12/23 10:36:48;;;;;;;;;;;9.80;99.90;;;;;;2613027;54;19950;-67
2022/12/23 10:39:22;;;;;;;;;;;9.80;99.90;;;;;;2613336;47;19953;-62
2022/12/23 10:41:57;;;;;;;;;;;9.80;99.90;;;;;;2616532;54;19958;-61
2022/12/23 10:44:39;;;;;;;;;;;9.80;99.90;;;;;;2619523;39;20565;-67
2022/12/23 10:47:15;;;;;;;;;;;9.90;99.90;;;;;;2618157;39;20433;-67
2022/12/23 10:49:51;;;;;;;;;;;9.90;99.90;;;;;;2613967;54;20062;-67
2022/12/23 10:52:21;;;;;;;;;;;9.90;99.90;;;;;;2615026;54;19993;-68
2022/12/23 10:54:51;;;;;;;;;;;9.90;99.90;;;;;;2612560;54;19954;-67
2022/12/23 10:57:22;;;;;;;;;;;9.90;99.90;;;;;;2613958;54;20014;-67
2022/12/23 10:59:54;;;;;;;;;;;9.90;99.90;;;;;;2613407;54;20482;-68
2022/12/23 11:02:30;;;;;;;;;;;9.90;99.90;;;;;;2612191;47;19984;-67
2022/12/23 11:05:00;;;;;;;;;;;10.00;99.90;;;;;;2612789;39;20347;-68
2022/12/23 11:07:30;;;;;;;;;;;10.00;99.90;;;;;;2613424;51;19946;-67
2022/12/23 11:10:18;;;;;;;;;;;10.00;99.90;;;;;;2611571;47;20030;-68
2022/12/23 11:12:49;;;;;;;;;;;10.00;99.90;;;;;;2613065;54;20695;-66
2022/12/23 11:15:29;;;;;;;;;;;10.00;99.90;;;;;;2612456;47;19958;-68
2022/12/23 11:18:06;;;;;;;;;;;10.10;99.90;;;;;;2613579;54;20034;-68
2022/12/23 11:20:36;;;;;;;;;;;10.10;99.90;;;;;;2613468;54;19946;-66
2022/12/23 11:23:07;;;;;;;;;;;10.10;99.90;;;;;;2612414;54;20006;-68
2022/12/23 11:25:38;;;;;;;;;;;10.10;99.90;;;;;;2612898;47;19994;-69
2022/12/23 11:28:13;;;;;;;;;;;10.10;99.90;;;;;;2610907;54;19947;-68
2022/12/23 11:30:56;;;;;;;;;;;10.00;99.90;;;;;;2614157;54;19946;-68
2022/12/23 11:33:27;;;;;;;;;;;10.00;99.90;;;;;;2613179;54;20016;-58
2022/12/23 11:36:02;;;;;;;;;;;10.00;99.90;;;;;;2613779;47;19950;-55
2022/12/23 11:38:32;;;;;;;;;;;10.00;99.90;;;;;;2613307;54;20462;-56
2022/12/23 11:41:01;;;;;;;;;;;10.10;99.90;;;;;;2612283;54;20440;-56
2022/12/23 11:43:33;;;;;;;;;;;10.10;99.90;;;;;;2613092;54;19954;-58
2022/12/23 11:46:18;;;;;;;;;;;10.20;99.90;;;;;;2612558;47;20534;-70
2022/12/23 11:48:48;;;;;;;;;;;10.20;99.90;;;;;;2613708;47;19938;-67
2022/12/23 11:51:26;;;;;;;;;;;10.20;99.90;;;;;;2615534;54;19954;-68
2022/12/23 11:54:00;;;;;;;;;;;10.30;99.90;;;;;;2613906;47;19981;-67
2022/12/23 11:56:30;;;;;;;;;;;10.30;99.90;;;;;;2614209;54;19943;-68
2022/12/23 11:59:02;;;;;;;;;;;10.30;99.90;;;;;;2614347;47;20066;-69
2022/12/23 12:01:35;;;;;;;;;;;10.30;99.90;;;;;;2615633;54;19992;-69
2022/12/23 12:04:07;;;;;;;;;;;10.30;99.90;;;;;;2619219;47;19947;-67
2022/12/23 12:06:37;;;;;;;;;;;10.40;99.90;;;;;;2614919;54;20479;-68
2022/12/23 12:09:07;;;;;;;;;;;10.40;99.90;;;;;;2614995;54;20058;-69
2022/12/23 12:11:39;;;;;;;;;;;10.40;99.90;;;;;;2615278;39;20348;-67
2022/12/23 12:14:10;;;;;;;;;;;10.40;99.90;;;;;;2614959;47;19953;-69
2022/12/23 12:16:48;;;;;;;;;;;10.30;99.90;;;;;;2617125;54;19963;-70
2022/12/23 12:19:20;;;;;;;;;;;10.30;99.90;;;;;;2619472;54;19953;-69
2022/12/23 12:21:51;;;;;;;;;;;10.30;99.90;;;;;;2615335;54;19950;-67
2022/12/23 12:24:23;;;;;;;;;;;10.30;99.90;;;;;;2614294;54;20010;-67
2022/12/23 12:26:54;;;;;;;;;;;10.30;99.90;;;;;;2615236;54;20451;-66
2022/12/23 12:29:25;;;;;;;;;;;10.30;99.90;;;;;;2615537;54;19997;-68
2022/12/23 12:31:59;;;;;;;;;;;10.30;99.90;;;;;;2615576;47;19955;-68
2022/12/23 12:34:35;;;;;;;;;;;10.30;99.90;;;;;;2617165;47;19950;-70
2022/12/23 12:37:09;;;;;;;;;;;10.30;99.90;;;;;;2613535;54;19954;-67
2022/12/23 12:39:42;;;;;;;;;;;10.30;99.90;;;;;;2614112;54;19958;-67
2022/12/23 12:42:15;;;;;;;;;;;10.30;99.90;;;;;;2613614;54;19951;-68
2022/12/23 12:44:47;;;;;;;;;;;10.30;99.90;;;;;;2615274;54;19946;-67
2022/12/23 12:47:22;;;;;;;;;;;10.30;99.90;;;;;;2613735;54;19943;-67
2022/12/23 12:50:15;;;;;;;;;;;10.30;99.90;;;;;;2612232;47;19951;-71
2022/12/23 12:52:44;;;;;;;;;;;10.30;99.90;;;;;;2614206;47;20058;-69
2022/12/23 12:55:18;;;;;;;;;;;10.30;99.90;;;;;;2612163;54;20078;-69
2022/12/23 12:57:48;;;;;;;;;;;10.30;99.90;;;;;;2613398;47;19950;-72
2022/12/23 13:00:19;;;;;;;;;;;10.30;99.90;;;;;;2612044;31;20570;-72
2022/12/23 13:03:08;;;;;;;;;;;10.30;99.90;;;;;;2613412;54;20006;-70
2022/12/23 13:05:47;;;;;;;;;;;10.30;99.90;;;;;;2614183;47;19945;-72
2022/12/23 13:08:29;;;;;;;;;;;10.30;99.90;;;;;;2614299;54;19958;-63
2022/12/23 13:11:03;;;;;;;;;;;10.30;99.90;;;;;;2612898;39;20316;-61
2022/12/23 13:13:38;;;;;;;;;;;10.30;99.90;;;;;;2611394;54;19971;-60
2022/12/23 13:16:13;;;;;;;;;;;10.40;99.90;;;;;;2613179;47;19993;-60
2022/12/23 13:18:50;;;;;;;;;;;10.40;99.90;;;;;;2614084;39;20887;-59
2022/12/23 13:21:23;;;;;;;;;;;10.30;99.90;;;;;;2615117;39;20371;-59
2022/12/23 13:23:54;;;;;;;;;;;10.30;99.90;;;;;;2613517;54;19950;-61
2022/12/23 13:26:34;;;;;;;;;;;10.30;99.90;;;;;;2613572;54;20232;-61
2022/12/23 13:29:16;;;;;;;;;;;10.40;99.90;;;;;;2612533;47;19993;-61
2022/12/23 13:31:49;;;;;;;;;;;10.40;99.90;;;;;;2612247;54;20058;-60
2022/12/23 13:34:28;;;;;;;;;;;10.40;99.90;;;;;;2613709;46;19947;-61
2022/12/23 13:37:00;;;;;;;;;;;10.40;99.90;;;;;;2613466;54;19984;-60
2022/12/23 13:39:35;;;;;;;;;;;10.40;99.90;;;;;;2614352;54;20444;-60
2022/12/23 13:42:06;;;;;;;;;;;10.40;99.90;;;;;;2614640;54;20884;-60
2022/12/23 13:44:35;;;;;;;;;;;10.40;99.90;;;;;;2612505;47;19954;-62
2022/12/23 13:47:09;;;;;;;;;;;10.40;99.90;;;;;;2613318;54;20034;-59
2022/12/23 13:49:50;;;;;;;;;;;10.50;99.90;;;;;;2612482;54;19943;-72
2022/12/23 13:52:25;;;;;;;;;;;10.50;99.90;;;;;;2616248;54;19946;-70
2022/12/23 13:54:59;;;;;;;;;;;10.50;99.90;;;;;;2614230;54;19938;-74
2022/12/23 13:57:38;;;;;;;;;;;10.50;99.90;;;;;;2616845;46;19978;-73
2022/12/23 14:00:25;;;;;;;;;;;10.50;99.90;;;;;;2614490;46;19946;-74
2022/12/23 14:03:06;;;;;;;;;;;10.50;99.90;;;;;;2615834;54;19994;-72
2022/12/23 14:05:40;;;;;;;;;;;10.50;99.90;;;;;;2614998;54;20638;-69
2022/12/23 14:08:23;;;;;;;;;;;10.50;99.90;;;;;;2614261;54;19946;-70
2022/12/23 14:10:54;;;;;;;;;;;10.50;99.90;;;;;;2615148;54;20013;-72
2022/12/23 14:13:25;;;;;;;;;;;10.50;99.90;;;;;;2616502;39;20381;-71
2022/12/23 14:16:09;;;;;;;;;;;10.50;99.90;;;;;;2620018;54;20653;-69
2022/12/23 14:18:51;;;;;;;;;;;10.50;99.90;;;;;;2618687;54;19938;-70
2022/12/23 14:21:29;;;;;;;;;;;10.50;99.90;;;;;;2616851;51;19947;-74
2022/12/23 14:24:04;;;;;;;;;;;10.50;99.90;;;;;;2616218;47;20455;-74
2022/12/23 14:26:54;;;;;;;;;;;10.60;99.90;;;;;;2616436;47;19958;-72
2022/12/23 14:29:36;;;;;;;;;;;10.60;99.90;;;;;;2615969;54;19946;-73
2022/12/23 14:32:06;;;;;;;;;;;10.60;99.90;;;;;;2616360;54;20001;-73
2022/12/23 14:34:35;;;;;;;;;;;10.60;99.90;;;;;;2616820;54;19946;-73
2022/12/23 14:37:20;;;;;;;;;;;10.60;99.90;;;;;;2617162;54;19950;-72
2022/12/23 14:39:52;;;;;;;;;;;10.50;99.90;;;;;;2617581;47;19939;-73
2022/12/23 14:42:35;;;;;;;;;;;10.60;99.90;;;;;;2617170;54;19950;-75
2022/12/23 14:45:20;;;;;;;;;;;10.60;99.90;;;;;;2620453;54;19953;-73
2022/12/23 14:47:49;;;;;;;;;;;10.50;99.90;;;;;;2620843;54;20455;-72
2022/12/23 14:50:34;;;;;;;;;;;10.50;99.90;;;;;;2617543;51;19968;-73
2022/12/23 14:53:04;;;;;;;;;;;10.40;99.90;;;;;;2617170;54;19955;-74
2022/12/23 14:55:46;;;;;;;;;;;10.50;99.90;;;;;;2617180;54;19939;-73
2022/12/23 14:58:31;;;;;;;;;;;10.50;99.90;;;;;;2622915;47;19953;-73
2022/12/23 15:01:03;;;;;;;;;;;10.60;99.90;;;;;;2618640;54;19954;-74
2022/12/23 15:03:35;;;;;;;;;;;10.60;99.90;;;;;;2617079;54;19953;-72
2022/12/23 15:06:05;;;;;;;;;;;10.50;99.90;;;;;;2617727;31;20439;-72
2022/12/23 15:08:38;;;;;;;;;;;10.50;99.90;;;;;;2618056;54;19953;-72
2022/12/23 15:11:16;;;;;;;;;;;10.50;99.90;;;;;;2619225;46;19949;-72
2022/12/23 15:13:46;;;;;;;;;;;10.40;99.90;;;;;;2618806;54;20001;-73
2022/12/23 15:16:18;;;;;;;;;;;10.50;99.90;;;;;;2617893;54;20491;-72
2022/12/23 15:18:54;;;;;;;;;;;10.60;99.90;;;;;;2617453;54;20431;-72
2022/12/23 15:21:29;;;;;;;;;;;10.60;99.90;;;;;;2616398;47;19950;-72